Wednesday, April 25, 2018, 12:16 PM GMT
Back to Local

CYMX, Montreal / Mirabel

Location: , , Canada Lat: 45.683
Local Time: 12:16 PM GMT (12:16 GMT) Lon: -74.033
Time Zone: GMT Elev: 269 ft

Show me the last for .
Show Coded

Time T Td Feel RH Dir Speed Gust Alt SLP Vis Weather Sky Remarks
2018-04-25 12:00 54 43 - 66 160° 6 - 30.03 30.04 15 -RA FEW050 BKN060 BKN085 OVC100 None
2018-04-25 11:42 54 41 - 62 150° 6 - 30.03 30.04 15 -RA BKN057 BKN085 OVC100 None
2018-04-25 11:00 52 41 - 66 140° 5 - 30.02 30.03 20 FEW056 BKN085 OVC120 None
2018-04-25 10:00 54 39 - 58 230° 5 - 30.01 30.02 35 FEW085 BKN100 OVC130 None
2018-04-25 09:00 55 39 - 54 280° 7 - 30.00 30.01 25 SCT060 OVC120 Pressure falling rapidly
2018-04-25 08:00 54 39 - 58 240° 8 - 30.03 30.04 25 SCT060 OVC130 None
2018-04-25 07:00 54 37 - 54 300° 5 - 30.02 30.03 25 BKN100 OVC150 None
2018-04-25 06:00 50 39 48 66 300° 5 - 30.03 30.04 25 BKN100 OVC160 None
2018-04-25 05:00 52 39 - 62 200° 3 - 30.05 30.05 25 BKN140 OVC180 None
2018-04-25 04:00 55 39 - 54 170° 3 - 30.05 30.06 25 BKN140 OVC180 None
2018-04-25 03:00 55 39 - 54 170° 6 - 30.06 30.07 25 BKN140 OVC180 None
2018-04-25 02:00 59 39 - 47 240° 2 - 30.07 30.08 25 BKN140 OVC180 None
2018-04-25 01:00 61 39 - 44 250° 2 - 30.08 30.09 25 BKN140 OVC180 None
2018-04-25 00:00 63 39 - 42 250° 5 - 30.08 30.09 25 BKN140 OVC180 None
2018-04-24 23:00 66 37 - 34 250° 7 - 30.08 30.09 45 FEW120 BKN150 BKN160 None
2018-04-24 22:00 68 39 - 34 230° 6 - 30.09 30.10 45 FEW070 FEW120 BKN150 BKN210 None
2018-04-24 21:00 68 41 - 37 240° 9 - 30.10 30.11 40 FEW070 BKN160 OVC210 None
2018-04-24 20:00 68 41 - 37 240° 8 - 30.10 30.11 40 FEW070 BKN180 OVC210 None
2018-04-24 19:00 68 41 - 37 240° 10 17 30.13 30.14 25 FEW050 SCT170 OVC230 None
2018-04-24 18:00 68 41 - 37 260° 10 20 30.15 30.16 40 BKN230 OVC260 None
2018-04-24 17:00 68 41 - 37 260° 9 - 30.16 30.17 35 SCT230 OVC270 None
2018-04-24 16:00 64 37 - 36 250° 7 - 30.19 30.20 25 SCT220 OVC250 None
2018-04-24 15:00 61 36 - 38 250° 9 - 30.22 30.23 20 FEW220 OVC250 None
2018-04-24 14:00 59 32 - 35 260° 9 - 30.23 30.24 35 FEW220 OVC270 None
2018-04-24 13:00 52 30 - 43 - Calm - 30.24 30.25 25 SCT200 OVC250 None

Support USWX by starting your Amazon purchase here.